Sail Way — CRA4549 — position and weather

sailwx.info

Track history (hours):
 
Tides and Currents Weather Stations Pressure Air Temp Water Temp Dewpoint Dewpoint Depression Visibility Wind Speed Wind Dir Waves Ship Positions

Sail Way

Last reported at 2015-Sep-01 16:18 UTC. Time now 2015-Sep-02 16:57 UTC.
Position N 37°05' W 008°33'.

Length 12 m.

Type: Sailing vessel. MMSI: 263912770.

Date/timePositionNaut miles runAvg speedWind from/ knotsBaromVisibWave heightAir tempDewpointWater temp
2015-Sep-01 16:18N 37°05' W 008°33'4 4.2
2015-Sep-01 15:27N 37°07' W 008°37'1 0.8
2015-Sep-01 14:30N 37°07' W 008°37'3 2.9
2015-Sep-01 13:32N 37°06' W 008°40'3 2.5
2015-Sep-01 12:30N 37°04' W 008°38'5 4.8
2015-Sep-01 11:30N 37°06' W 008°33'  
2015-Aug-26 15:28N 37°06' W 008°32'7 5.8
2015-Aug-26 14:17N 37°04' W 008°23'4 5.6
2015-Aug-26 13:29N 37°03' W 008°18'  
Track history (hours):
 
Tides and Currents Weather Stations Pressure Air Temp Water Temp Dewpoint Dewpoint Depression Visibility Wind Speed Wind Dir Waves Ship Positions

Sail Way

Last reported at 2015-Sep-01 16:18 UTC. Time now 2015-Sep-02 16:57 UTC.
Position N 37°05' W 008°33'.

Length 12 m.

Type: Sailing vessel. MMSI: 263912770.

Date/timePositionNaut miles runAvg speedWind from/ knotsBaromVisibWave heightAir tempDewpointWater temp
2015-Sep-01 16:18N 37°05' W 008°33'4 4.2
2015-Sep-01 15:27N 37°07' W 008°37'1 0.8
2015-Sep-01 14:30N 37°07' W 008°37'3 2.9
2015-Sep-01 13:32N 37°06' W 008°40'3 2.5
2015-Sep-01 12:30N 37°04' W 008°38'5 4.8
2015-Sep-01 11:30N 37°06' W 008°33'  
2015-Aug-26 15:28N 37°06' W 008°32'7 5.8
2015-Aug-26 14:17N 37°04' W 008°23'4 5.6
2015-Aug-26 13:29N 37°03' W 008°18'  

Dump ship's entire track history